createdAt,value
2019-02-22T00:01:07.249Z,8.65
2019-02-22T00:04:09.009Z,8.50
2019-02-22T00:07:10.484Z,6.85
2019-02-22T00:10:12.023Z,8.53
2019-02-22T00:13:13.714Z,9.10
2019-02-22T00:16:15.120Z,8.05
2019-02-22T00:19:17.857Z,7.35
2019-02-22T00:22:19.309Z,7.28
2019-02-22T00:25:20.733Z,8.23
2019-02-22T00:28:22.236Z,7.92
2019-02-22T00:31:23.703Z,7.90
2019-02-22T00:34:25.247Z,8.08
2019-02-22T00:37:26.717Z,9.40
2019-02-22T00:40:28.096Z,8.05
2019-02-22T00:43:29.902Z,9.28
2019-02-22T00:46:31.599Z,8.53
2019-02-22T00:49:33.329Z,8.88
2019-02-22T00:52:34.763Z,8.88
2019-02-22T00:55:36.140Z,9.28
2019-02-22T00:58:37.571Z,8.53
2019-02-22T01:01:39.012Z,8.03
2019-02-22T01:04:40.384Z,7.55
2019-02-22T01:07:42.908Z,8.23
2019-02-22T01:10:44.297Z,8.43
2019-02-22T01:13:45.738Z,8.00
2019-02-22T01:16:47.125Z,7.58
2019-02-22T01:19:48.522Z,6.87
2019-02-22T01:22:50.045Z,8.25
2019-02-22T01:25:51.505Z,9.53
2019-02-22T01:28:53.294Z,7.83
2019-02-22T01:31:54.669Z,7.95
2019-02-22T01:34:56.143Z,8.18
2019-02-22T01:37:57.514Z,9.13
2019-02-22T01:40:58.964Z,7.78
2019-02-22T01:44:00.356Z,8.63
2019-02-22T01:47:01.747Z,8.80
2019-02-22T01:50:03.227Z,7.58
2019-02-22T01:53:05.402Z,9.00
2019-02-22T01:56:06.808Z,7.42
2019-02-22T01:59:08.356Z,8.70
2019-02-22T02:02:09.770Z,8.73
2019-02-22T02:05:11.209Z,9.83
2019-02-22T02:08:12.596Z,9.03
2019-02-22T02:11:13.957Z,9.83
2019-02-22T02:14:15.395Z,8.85
2019-02-22T02:17:17.814Z,8.90
2019-02-22T02:20:19.453Z,7.90
2019-02-22T02:23:21.907Z,9.00
2019-02-22T02:26:23.286Z,9.05
2019-02-22T02:29:24.683Z,8.53
2019-02-22T02:32:26.067Z,7.72
2019-02-22T02:35:27.476Z,10.03
2019-02-22T02:38:28.897Z,8.35
2019-02-22T02:41:30.275Z,7.75
2019-02-22T02:44:31.730Z,8.55
2019-02-22T02:47:33.100Z,8.35
2019-02-22T02:50:35.670Z,8.08
2019-02-22T02:53:37.877Z,9.83
2019-02-22T02:56:39.473Z,8.28
2019-02-22T02:59:41.359Z,8.78
2019-02-22T03:02:42.777Z,8.55
2019-02-22T03:06:12.423Z,7.75
2019-02-22T03:09:13.902Z,7.60
2019-02-22T03:12:15.370Z,8.38
2019-02-22T03:15:18.402Z,10.48
2019-02-22T03:18:19.949Z,9.65
2019-02-22T03:21:21.435Z,9.08
2019-02-22T03:24:22.840Z,8.55
2019-02-22T03:27:24.421Z,7.42
2019-02-22T03:30:25.962Z,9.03
2019-02-22T03:33:27.357Z,10.08
2019-02-22T03:36:28.834Z,7.17
2019-02-22T03:39:30.198Z,8.28
2019-02-22T03:42:31.574Z,10.00
2019-02-22T03:45:32.956Z,8.05
2019-02-22T03:48:34.326Z,7.70
2019-02-22T03:51:35.732Z,9.20
2019-02-22T03:54:37.125Z,7.30
2019-02-22T03:57:38.549Z,9.50
2019-02-22T04:00:39.995Z,8.48
2019-02-22T04:03:41.728Z,9.28
2019-02-22T04:06:43.635Z,8.33
2019-02-22T04:09:45.157Z,10.03
2019-02-22T04:12:46.840Z,7.62
2019-02-22T04:15:48.286Z,7.83
2019-02-22T04:18:49.610Z,7.45
2019-02-22T04:21:51.028Z,10.53
2019-02-22T04:24:52.556Z,8.73
2019-02-22T04:27:54.220Z,8.00
2019-02-22T04:30:55.724Z,8.40
2019-02-22T04:33:57.169Z,8.65
2019-02-22T04:36:58.594Z,10.10
2019-02-22T04:39:59.977Z,8.18
2019-02-22T04:43:01.371Z,8.70
2019-02-22T04:46:02.810Z,8.50
2019-02-22T04:49:04.284Z,7.20
2019-02-22T04:52:05.747Z,8.15
2019-02-22T04:55:07.159Z,8.10
2019-02-22T04:58:08.586Z,7.25
2019-02-22T05:01:10.032Z,8.28
2019-02-22T05:04:11.459Z,8.70
2019-02-22T05:07:12.988Z,8.33
2019-02-22T05:10:14.326Z,8.50
2019-02-22T05:13:15.796Z,8.80
2019-02-22T05:16:17.177Z,7.50
2019-02-22T05:19:18.554Z,8.33
2019-02-22T05:22:19.953Z,8.68
2019-02-22T05:25:21.357Z,10.03
2019-02-22T05:28:22.821Z,8.15
2019-02-22T05:31:24.223Z,8.10
2019-02-22T05:34:25.644Z,7.95
2019-02-22T05:37:27.073Z,8.18
2019-02-22T05:40:28.464Z,8.40
2019-02-22T05:43:29.881Z,8.60
2019-02-22T05:46:31.269Z,8.57
2019-02-22T05:49:32.705Z,9.05
2019-02-22T05:52:34.066Z,10.05
2019-02-22T05:55:35.483Z,7.90
2019-02-22T05:58:36.902Z,9.50
2019-02-22T06:01:38.288Z,8.50
2019-02-22T06:04:39.765Z,8.78
2019-02-22T06:07:41.158Z,8.68
2019-02-22T06:10:42.532Z,9.00
2019-02-22T06:13:43.936Z,8.48
2019-02-22T06:16:45.686Z,8.75
2019-02-22T06:19:47.298Z,8.93
2019-02-22T06:22:48.848Z,9.13
2019-02-22T06:25:50.294Z,9.80
2019-02-22T06:28:52.070Z,9.00
2019-02-22T06:31:54.026Z,9.35
2019-02-22T06:34:55.771Z,10.03
2019-02-22T06:37:57.195Z,7.95
2019-02-22T06:40:58.583Z,7.67
2019-02-22T06:43:59.968Z,8.25
2019-02-22T06:47:01.434Z,12.37
2019-02-22T06:50:02.818Z,8.53
2019-02-22T06:53:04.287Z,8.48
2019-02-22T06:56:05.693Z,9.28
2019-02-22T06:59:07.131Z,8.15
2019-02-22T07:02:08.587Z,9.65
2019-02-22T07:05:09.986Z,8.75
2019-02-22T07:08:11.392Z,9.50
2019-02-22T07:11:31.741Z,7.87
2019-02-22T07:14:33.187Z,10.08
2019-02-22T07:17:34.600Z,8.80
2019-02-22T07:20:37.042Z,8.48
2019-02-22T07:23:38.437Z,9.53
2019-02-22T07:26:39.863Z,8.18
2019-02-22T07:29:41.345Z,9.25
2019-02-22T07:32:42.859Z,8.70
2019-02-22T07:35:44.325Z,10.20
2019-02-22T07:38:45.916Z,8.75
2019-02-22T07:41:47.279Z,8.53
2019-02-22T07:44:48.703Z,9.98
2019-02-22T07:47:50.088Z,8.40
2019-02-22T07:50:57.967Z,8.80
2019-02-22T07:53:54.604Z,11.80
2019-02-22T07:56:56.017Z,9.18
2019-02-22T07:59:57.812Z,9.78
2019-02-22T08:02:59.884Z,8.20
2019-02-22T08:06:02.502Z,9.43
2019-02-22T08:09:05.385Z,8.40
2019-02-22T08:12:07.179Z,8.63
2019-02-22T08:15:10.089Z,9.83
2019-02-22T08:18:11.558Z,10.23
2019-02-22T08:21:13.991Z,8.23
2019-02-22T08:24:15.537Z,9.73
2019-02-22T08:27:16.979Z,10.65
2019-02-22T08:30:18.443Z,8.45
2019-02-22T08:33:19.854Z,9.18
2019-02-22T08:36:21.341Z,9.38
2019-02-22T08:39:22.887Z,8.98
2019-02-22T08:42:24.572Z,9.88
2019-02-22T08:45:26.063Z,9.45
2019-02-22T08:48:27.538Z,10.23
2019-02-22T08:51:28.941Z,9.85
2019-02-22T08:54:30.454Z,10.58
2019-02-22T08:57:31.961Z,8.35
2019-02-22T09:00:33.506Z,8.65
2019-02-22T09:03:35.119Z,8.88
2019-02-22T09:06:36.559Z,10.08
2019-02-22T09:09:38.177Z,9.45
2019-02-22T09:12:39.788Z,9.80
2019-02-22T09:15:41.219Z,8.60
2019-02-22T09:18:42.640Z,10.15
2019-02-22T09:21:44.175Z,10.20
2019-02-22T09:24:45.567Z,10.23
2019-02-22T09:27:46.988Z,8.13
2019-02-22T09:30:48.589Z,10.15
2019-02-22T09:33:50.000Z,10.58
2019-02-22T09:36:51.383Z,10.32
2019-02-22T09:39:52.811Z,10.20
2019-02-22T09:42:54.222Z,10.98
2019-02-22T09:45:55.628Z,8.53
2019-02-22T09:48:57.035Z,7.97
2019-02-22T09:51:58.492Z,10.68
2019-02-22T09:54:59.936Z,10.68
2019-02-22T09:58:01.324Z,9.38
2019-02-22T10:01:03.492Z,9.58
2019-02-22T10:04:05.241Z,9.58
2019-02-22T10:07:07.037Z,12.35
2019-02-22T10:10:10.589Z,9.78
2019-02-22T10:13:11.986Z,9.50
2019-02-22T10:16:13.436Z,11.53
2019-02-22T10:19:14.958Z,9.75
2019-02-22T10:22:17.348Z,9.65
2019-02-22T10:25:18.828Z,9.95
2019-02-22T10:28:20.245Z,10.68
2019-02-22T10:31:21.705Z,8.10
2019-02-22T10:34:23.151Z,9.88
2019-02-22T10:37:24.575Z,9.83
2019-02-22T10:40:25.951Z,9.30
2019-02-22T10:43:27.417Z,7.95
2019-02-22T10:46:28.803Z,8.68
2019-02-22T10:49:30.338Z,17.35
2019-02-22T10:52:32.112Z,8.63
2019-02-22T10:55:33.505Z,8.90
2019-02-22T10:58:35.007Z,8.80
2019-02-22T11:01:36.503Z,7.60
2019-02-22T11:04:37.940Z,9.80
2019-02-22T11:07:39.439Z,7.42
2019-02-22T11:10:40.851Z,8.23
2019-02-22T11:13:42.315Z,8.48
2019-02-22T11:16:43.752Z,7.55
2019-02-22T11:19:45.215Z,9.40
2019-02-22T11:22:46.647Z,7.72
2019-02-22T11:25:48.092Z,8.73
2019-02-22T11:28:49.475Z,7.72
2019-02-22T11:31:51.364Z,7.75
2019-02-22T11:34:52.849Z,14.43
2019-02-22T11:37:54.311Z,14.23
2019-02-22T11:40:55.781Z,14.18
2019-02-22T11:43:57.267Z,11.57
2019-02-22T11:46:59.238Z,13.43
2019-02-22T11:50:00.866Z,15.88
2019-02-22T11:53:04.041Z,15.80
2019-02-22T11:56:05.589Z,18.10
2019-02-22T11:59:07.214Z,12.53
2019-02-22T12:02:09.490Z,12.80
2019-02-22T12:05:11.102Z,14.63
2019-02-22T12:08:13.690Z,11.00
2019-02-22T12:11:15.432Z,17.12
2019-02-22T12:14:16.972Z,10.65
2019-02-22T12:17:18.440Z,15.83
2019-02-22T12:20:20.062Z,11.57
2019-02-22T12:23:21.618Z,14.50
2019-02-22T12:26:23.114Z,9.65
2019-02-22T12:29:24.922Z,11.85
2019-02-22T12:32:26.400Z,18.60
2019-02-22T12:35:28.027Z,15.30
2019-02-22T12:38:30.787Z,11.28
2019-02-22T12:41:32.592Z,17.10
2019-02-22T12:44:34.375Z,10.10
2019-02-22T12:47:37.477Z,13.62
2019-02-22T12:50:40.615Z,9.58
2019-02-22T12:53:42.185Z,12.93
2019-02-22T12:56:57.004Z,10.03
2019-02-22T12:59:49.400Z,10.72
2019-02-22T13:03:01.596Z,12.78
2019-02-22T13:05:54.562Z,10.32
2019-02-22T13:08:56.126Z,13.18
2019-02-22T13:11:57.596Z,11.65
2019-02-22T13:14:59.037Z,9.75
2019-02-22T13:18:02.960Z,14.68
2019-02-22T13:21:03.805Z,10.70
2019-02-22T13:24:05.354Z,8.65
2019-02-22T13:27:06.883Z,7.62
2019-02-22T13:30:10.980Z,9.18
2019-02-22T13:33:12.548Z,7.90
2019-02-22T13:36:14.799Z,13.83
2019-02-22T13:39:16.732Z,12.58
2019-02-22T13:42:18.312Z,13.80
2019-02-22T13:45:26.720Z,9.88
2019-02-22T13:48:23.209Z,10.03
2019-02-22T13:51:24.772Z,10.18
2019-02-22T13:54:26.270Z,8.05
2019-02-22T13:57:30.264Z,7.40
2019-02-22T14:00:31.048Z,8.68
2019-02-22T14:03:32.754Z,9.55
2019-02-22T14:06:34.221Z,7.10
2019-02-22T14:09:36.694Z,6.95
2019-02-22T14:12:38.154Z,10.03
2019-02-22T14:15:39.635Z,10.93
2019-02-22T14:18:41.098Z,6.17
2019-02-22T14:21:42.750Z,9.48
2019-02-22T14:24:44.166Z,8.73
2019-02-22T14:27:45.663Z,7.78
2019-02-22T14:30:47.123Z,9.48
2019-02-22T14:33:48.521Z,6.65
2019-02-22T14:36:50.783Z,6.22
2019-02-22T14:40:02.305Z,8.10
2019-02-22T14:42:55.462Z,12.20
2019-02-22T14:46:07.563Z,13.98
2019-02-22T14:49:27.544Z,9.88
2019-02-22T14:52:32.918Z,11.73
2019-02-22T14:55:35.078Z,15.55
2019-02-22T14:58:36.682Z,16.37
2019-02-22T15:01:38.278Z,16.90
2019-02-22T15:04:40.320Z,15.13
2019-02-22T15:07:41.929Z,29.95
2019-02-22T15:10:44.873Z,15.70
2019-02-22T15:13:46.543Z,11.65
2019-02-22T15:16:59.320Z,12.30
2019-02-22T15:20:00.944Z,19.75
2019-02-22T15:23:05.749Z,20.20
2019-02-22T15:26:07.602Z,19.90
2019-02-22T15:29:09.282Z,16.90
2019-02-22T15:32:12.567Z,18.30
2019-02-22T15:35:15.234Z,14.05
2019-02-22T15:38:19.982Z,9.75
2019-02-22T15:41:45.250Z,16.17
2019-02-22T15:44:48.378Z,11.60
2019-02-22T15:47:49.983Z,16.02
2019-02-22T15:50:51.883Z,16.32
2019-02-22T15:53:53.604Z,10.35
2019-02-22T15:56:56.782Z,12.20
2019-02-22T16:00:01.282Z,12.00
2019-02-22T16:03:13.292Z,17.50
2019-02-22T16:06:16.753Z,12.98
2019-02-22T16:09:18.396Z,16.50
2019-02-22T16:12:20.509Z,10.32
2019-02-22T16:15:22.267Z,12.73
2019-02-22T16:18:24.426Z,11.73
2019-02-22T16:21:26.651Z,15.70
2019-02-22T16:24:28.435Z,12.78
2019-02-22T16:27:30.545Z,13.43
2019-02-22T16:30:35.254Z,10.13
2019-02-22T16:33:37.175Z,8.53
2019-02-22T16:36:38.937Z,12.20
2019-02-22T16:39:41.083Z,7.75
2019-02-22T16:42:44.137Z,11.05
2019-02-22T16:45:47.161Z,9.45
2019-02-22T16:48:49.013Z,10.00
2019-02-22T16:51:51.971Z,6.65
2019-02-22T16:54:56.098Z,6.53
2019-02-22T16:58:04.129Z,11.43
2019-02-22T17:01:07.859Z,8.85
2019-02-22T17:04:12.013Z,8.00
2019-02-22T17:07:14.160Z,11.90
2019-02-22T17:10:19.312Z,9.48
2019-02-22T17:13:21.975Z,8.58
2019-02-22T17:16:25.310Z,10.58
2019-02-22T17:19:30.689Z,8.08
2019-02-22T17:22:32.699Z,8.98
2019-02-22T17:25:35.730Z,11.30
2019-02-22T17:28:38.856Z,10.88
2019-02-22T17:31:43.876Z,7.50
2019-02-22T17:34:46.644Z,7.12
2019-02-22T17:37:48.848Z,7.08
2019-02-22T17:40:51.042Z,9.85
2019-02-22T17:43:55.436Z,8.78
2019-02-22T17:46:57.988Z,8.48
2019-02-22T17:50:00.031Z,10.18
2019-02-22T17:53:03.889Z,8.50
2019-02-22T17:56:07.129Z,5.10
2019-02-22T17:59:09.022Z,7.25
2019-02-22T18:02:10.885Z,7.00
2019-02-22T18:05:13.003Z,8.40
2019-02-22T18:08:14.899Z,7.30
2019-02-22T18:11:20.463Z,7.05
2019-02-22T18:14:22.372Z,13.78
2019-02-22T18:17:32.398Z,8.45
2019-02-22T18:20:35.742Z,6.45
2019-02-22T18:23:36.853Z,5.65
2019-02-22T18:26:38.699Z,7.33
2019-02-22T18:29:40.169Z,7.20
2019-02-22T18:32:41.740Z,4.42
2019-02-22T18:35:43.691Z,4.83
2019-02-22T18:38:45.360Z,6.12
2019-02-22T18:41:47.326Z,6.72
2019-02-22T18:44:49.025Z,9.68
2019-02-22T18:47:50.444Z,6.72
2019-02-22T18:50:51.910Z,5.80
2019-02-22T18:53:54.450Z,6.03
2019-02-22T18:56:56.282Z,8.63
2019-02-22T18:59:57.838Z,4.92
2019-02-22T19:03:00.399Z,9.28
2019-02-22T19:06:01.993Z,5.42
2019-02-22T19:09:03.679Z,7.35
2019-02-22T19:12:07.061Z,8.80
2019-02-22T19:15:11.454Z,6.45
2019-02-22T19:18:12.995Z,4.97
2019-02-22T19:21:14.538Z,7.55
2019-02-22T19:24:16.056Z,5.92
2019-02-22T19:27:17.586Z,4.25
2019-02-22T19:30:20.098Z,5.53
2019-02-22T19:33:21.870Z,5.55
2019-02-22T19:36:23.437Z,4.65
2019-02-22T19:39:25.250Z,4.05
2019-02-22T19:42:27.038Z,6.08
2019-02-22T19:45:28.639Z,4.97
2019-02-22T19:48:30.366Z,4.60
2019-02-22T19:51:32.265Z,3.87
2019-02-22T19:54:33.832Z,4.97
2019-02-22T19:57:35.414Z,3.85
2019-02-22T20:00:36.996Z,6.45
2019-02-22T20:03:38.566Z,4.30
2019-02-22T20:06:40.144Z,4.62
2019-02-22T20:09:41.813Z,4.22
2019-02-22T20:12:43.606Z,4.45
2019-02-22T20:15:45.466Z,4.35
2019-02-22T20:18:47.031Z,4.30
2019-02-22T20:21:48.500Z,4.92
2019-02-22T20:24:50.234Z,5.80
2019-02-22T20:27:52.072Z,4.08
2019-02-22T20:30:53.560Z,4.15
2019-02-22T20:33:56.249Z,5.37
2019-02-22T20:36:57.787Z,5.15
2019-02-22T20:39:59.691Z,4.60
2019-02-22T20:43:01.237Z,3.70
2019-02-22T20:46:02.848Z,4.62
2019-02-22T20:49:04.411Z,4.00
2019-02-22T20:52:05.915Z,3.95
2019-02-22T20:55:08.810Z,4.15
2019-02-22T20:58:10.316Z,4.65
2019-02-22T21:01:14.774Z,4.03
2019-02-22T21:04:16.141Z,5.15
2019-02-22T21:07:17.679Z,5.90
2019-02-22T21:10:19.784Z,3.83
2019-02-22T21:13:21.375Z,3.30
2019-02-22T21:16:22.922Z,4.50
2019-02-22T21:19:24.636Z,3.65
2019-02-22T21:22:26.248Z,4.25
2019-02-22T21:25:27.748Z,4.25
2019-02-22T21:28:29.261Z,4.42
2019-02-22T21:31:30.814Z,4.60
2019-02-22T21:34:32.306Z,4.03
2019-02-22T21:37:33.807Z,3.87
2019-02-22T21:40:35.334Z,4.60
2019-02-22T21:43:37.350Z,3.50
2019-02-22T21:46:39.045Z,4.37
2019-02-22T21:49:40.808Z,4.15
2019-02-22T21:52:42.399Z,4.03
2019-02-22T21:55:43.908Z,4.60
2019-02-22T21:58:45.343Z,3.80
2019-02-22T22:01:46.851Z,4.22
2019-02-22T22:04:48.293Z,4.60
2019-02-22T22:07:49.778Z,5.40
2019-02-22T22:10:51.265Z,4.10
2019-02-22T22:13:53.034Z,5.62
2019-02-22T22:16:54.525Z,3.92
2019-02-22T22:19:55.977Z,4.35
2019-02-22T22:22:57.442Z,5.53
2019-02-22T22:25:58.969Z,4.10
2019-02-22T22:29:00.482Z,3.80
2019-02-22T22:32:01.928Z,4.17
2019-02-22T22:35:03.420Z,4.17
2019-02-22T22:38:04.919Z,4.78
2019-02-22T22:41:06.844Z,4.80
2019-02-22T22:44:08.512Z,4.42
2019-02-22T22:47:09.934Z,5.47
2019-02-22T22:50:12.829Z,3.67
2019-02-22T22:53:14.376Z,3.83
2019-02-22T22:56:15.818Z,5.83
2019-02-22T22:59:17.305Z,3.58
2019-02-22T23:02:18.916Z,4.30
2019-02-22T23:05:20.427Z,4.17
2019-02-22T23:08:21.912Z,4.95
2019-02-22T23:11:24.004Z,4.17
2019-02-22T23:14:25.576Z,3.80
2019-02-22T23:17:27.020Z,4.35
2019-02-22T23:20:28.516Z,4.03
2019-02-22T23:23:31.919Z,5.83
2019-02-22T23:26:33.612Z,4.30
2019-02-22T23:29:35.124Z,4.87
2019-02-22T23:32:36.602Z,5.60
2019-02-22T23:35:38.016Z,5.08
2019-02-22T23:38:39.459Z,3.95
2019-02-22T23:41:41.972Z,5.05
2019-02-22T23:44:43.399Z,4.28
2019-02-22T23:47:45.640Z,4.87
2019-02-22T23:50:47.336Z,4.55
2019-02-22T23:53:49.183Z,5.60
2019-02-22T23:56:50.718Z,5.47
2019-02-22T23:59:52.139Z,4.60
